Kowanda, Nebraska
Current Conditions -  °F | °C
As of 3:53 AM on Friday 24 Oct 2014 (Local Time) from KAIA Reporting Station
Clear Clear  
Wind Chill: 34°   Ceiling: Unl
Heat Index: 40°   Visibility: 10mi
Dew Point: 32°   Wind: 9mph
Humidity: 73%   Direction: 280°W
Pressure: 29.98"   Gusts: NA
Location:  41.7534°N, 102.325°W
Report Text: KAIA 240953Z AUTO 28008KT 10SM CLR 04/00 A2998 RMK AO2 SLP132 T00440000
Loading
Personal Weather Stations






























Interactive Weather Map
Tropical Storm Tracking
New forecast layout! Learn more

10-Day Weather Forecast

Advertisements
Track Severe Weather on mobile